Time;durP1;ratioP1;P1;durP2;ratioP2;P2;SDS_P1;SDS_P2;PMS_P1;PMS_P2;Temp;Humidity;BMP_temperature;BMP_pressure;BME280_temperature;BME280_humidity;BME280_pressure;Samples;Min_cycle;Max_cycle;Signal;HPM_P1;HPM_P2
2022/11/02 00:01:27;;;;;;;;;27.50;24.00;;;;;11.38;100.00;100129.13;6267107;20;2839904;-68
2022/11/02 00:03:56;;;;;;;;;27.50;23.00;;;;;11.46;100.00;100163.66;6267060;20;2836741;-68
2022/11/02 00:06:25;;;;;;;;;29.50;23.00;;;;;11.51;100.00;100155.31;6268062;20;2838917;-69
2022/11/02 00:08:54;;;;;;;;;25.00;21.00;;;;;11.47;100.00;100153.75;6267343;20;2832630;-68
2022/11/02 00:11:22;;;;;;;;;32.00;27.00;;;;;11.45;100.00;100161.88;6273164;20;3568073;-68
2022/11/02 00:13:52;;;;;;;;;33.33;28.67;;;;;11.48;100.00;100167.13;6264136;20;3594040;-68
2022/11/02 00:16:24;;;;;;;;;26.00;23.50;;;;;11.40;100.00;100164.88;6302006;20;2837833;-68
2022/11/02 00:18:57;;;;;;;;;30.00;22.67;;;;;11.39;100.00;100167.63;6265038;20;3608196;-68
2022/11/02 00:21:27;;;;;;;;;33.33;24.00;;;;;11.50;100.00;100170.56;6297820;20;2867054;-68
2022/11/02 00:23:58;;;;;;;;;23.00;23.00;;;;;11.60;100.00;100165.53;6299695;20;3585677;-68
2022/11/02 00:26:28;;;;;;;;;27.00;23.50;;;;;11.59;100.00;100163.81;6265064;20;2846100;-68
2022/11/02 00:28:58;;;;;;;;;26.00;20.00;;;;;11.59;100.00;100170.03;6263962;20;2845176;-68
2022/11/02 00:31:27;;;;;;;;;27.00;23.00;;;;;11.55;100.00;100163.09;6268064;20;2853467;-68
2022/11/02 00:33:56;;;;;;;;;29.67;28.00;;;;;11.53;100.00;100156.97;6302531;20;3573211;-68
2022/11/02 00:36:25;;;;;;;;;25.50;21.50;;;;;11.62;100.00;100166.31;6269060;20;2833956;-68
2022/11/02 00:38:54;;;;;;;;;31.00;25.33;;;;;11.59;100.00;100167.34;6266145;20;2858838;-69
2022/11/02 00:41:24;;;;;;;;;28.33;27.33;;;;;11.54;100.00;100165.88;6299071;20;2838976;-68
2022/11/02 00:43:55;;;;;;;;;29.33;24.33;;;;;11.53;100.00;100173.09;6300462;20;3575270;-68
2022/11/02 00:46:24;;;;;;;;;29.67;27.00;;;;;11.53;100.00;100170.41;6266979;20;2854661;-69
2022/11/02 00:48:53;;;;;;;;;27.67;25.00;;;;;11.54;100.00;100176.66;6300764;20;3585986;-68
2022/11/02 00:51:23;;;;;;;;;36.00;31.00;;;;;11.56;100.00;100180.13;6268475;20;3610850;-68
2022/11/02 00:53:52;;;;;;;;;39.00;30.00;;;;;11.51;100.00;100176.84;6303827;20;3630454;-68
2022/11/02 00:56:20;;;;;;;;;26.00;24.33;;;;;11.41;100.00;100187.25;6273483;20;3564822;-68
2022/11/02 00:58:49;;;;;;;;;35.67;29.33;;;;;11.36;100.00;100182.13;6301931;20;3607675;-68
2022/11/02 01:01:18;;;;;;;;;32.00;27.67;;;;;11.38;100.00;100179.34;6267689;20;3584598;-68
2022/11/02 01:03:47;;;;;;;;;32.00;29.00;;;;;11.33;100.00;100190.34;6267666;20;3598224;-68
2022/11/02 01:06:16;;;;;;;;;28.33;26.67;;;;;11.42;100.00;100180.88;6271906;20;2852470;-68
2022/11/02 01:08:45;;;;;;;;;36.33;29.67;;;;;11.32;100.00;100182.38;6300598;20;3620085;-68
2022/11/02 01:11:21;;;;;;;;;28.33;23.33;;;;;11.33;100.00;100181.44;6263530;20;2840962;-68
2022/11/02 01:13:51;;;;;;;;;48.33;35.67;;;;;11.30;100.00;100173.53;6298275;20;3607877;-68
2022/11/02 01:16:21;;;;;;;;;41.67;32.00;;;;;11.35;100.00;100166.94;6267603;20;3604444;-68
2022/11/02 01:18:55;;;;;;;;;34.67;29.00;;;;;11.28;100.00;100164.69;6298402;20;3597632;-68
2022/11/02 01:21:25;;;;;;;;;34.33;28.33;;;;;11.27;100.00;100157.56;6268885;20;2858741;-68
2022/11/02 01:23:55;;;;;;;;;38.67;31.67;;;;;11.28;100.00;100160.19;6296634;20;2855196;-68
2022/11/02 01:26:24;;;;;;;;;36.67;31.33;;;;;11.34;100.00;100165.19;6298757;20;3604452;-68
2022/11/02 01:28:54;;;;;;;;;34.33;26.33;;;;;11.26;100.00;100159.38;6263015;20;2869184;-68
2022/11/02 01:31:23;;;;;;;;;27.67;22.33;;;;;11.23;100.00;100162.25;6300743;20;3576452;-69
2022/11/02 01:33:52;;;;;;;;;26.33;21.67;;;;;11.33;100.00;100162.63;6264325;20;2846104;-68
2022/11/02 01:36:21;;;;;;;;;27.50;23.00;;;;;11.27;100.00;100169.22;6300237;20;2837827;-68
2022/11/02 01:39:10;;;;;;;;;26.33;23.67;;;;;11.26;100.00;100167.47;6266002;20;2840983;-68
2022/11/02 01:41:39;;;;;;;;;26.00;23.33;;;;;11.10;100.00;100156.72;6301342;20;3576306;-68
2022/11/02 01:44:34;;;;;;;;;21.50;21.50;;;;;11.10;100.00;100154.00;6262191;20;2848178;-68
2022/11/02 01:47:28;;;;;;;;;28.00;25.00;;;;;11.21;100.00;100148.03;6267774;20;2853647;-69
2022/11/02 01:50:11;;;;;;;;;32.33;23.67;;;;;11.09;100.00;100160.34;6296045;20;2853412;-69
2022/11/02 01:52:41;;;;;;;;;26.00;21.67;;;;;11.07;100.00;100156.88;6302060;20;2844256;-69
2022/11/02 01:55:24;;;;;;;;;33.67;28.00;;;;;11.08;100.00;100153.22;6301295;20;3600374;-68
2022/11/02 01:58:09;;;;;;;;;32.00;26.50;;;;;10.98;100.00;100157.41;6265275;20;2844249;-68
2022/11/02 02:00:40;;;;;;;;;37.67;29.67;;;;;10.94;100.00;100150.47;6264050;20;3612735;-68
2022/11/02 02:03:15;;;;;;;;;24.67;20.00;;;;;10.95;100.00;100155.75;6296441;20;3567053;-69
2022/11/02 02:06:04;;;;;;;;;30.67;25.33;;;;;11.22;100.00;100165.91;6298494;20;3573166;-68
2022/11/02 02:08:42;;;;;;;;;32.33;24.67;;;;;10.94;100.00;100155.84;6263633;20;2865119;-68
2022/11/02 02:11:37;;;;;;;;;28.67;28.00;;;;;11.06;100.00;100155.16;6299753;20;3573387;-68
2022/11/02 02:14:17;;;;;;;;;33.33;29.67;;;;;10.86;100.00;100141.97;6262413;20;3601301;-68
2022/11/02 02:17:24;;;;;;;;;35.33;31.33;;;;;10.96;100.00;100138.69;6298034;20;3558773;-68
2022/11/02 02:20:43;;;;;;;;;39.67;32.00;;;;;11.05;100.00;100148.03;6297923;20;3610690;-68
2022/11/02 02:23:55;;;;;;;;;41.00;34.00;;;;;11.09;100.00;100154.13;6266208;20;3498323;-68
2022/11/02 02:27:11;;;;;;;;;42.67;34.00;;;;;10.98;100.00;100162.78;6300481;20;3616962;-68
2022/11/02 02:30:00;;;;;;;;;46.00;33.33;;;;;10.94;100.00;100155.84;6265564;20;3616941;-68
2022/11/02 02:33:09;;;;;;;;;39.33;34.67;;;;;11.05;100.00;100163.28;6264995;20;3608677;-68
2022/11/02 02:35:50;;;;;;;;;41.00;32.00;;;;;10.87;100.00;100159.81;6263780;20;3630559;-68
2022/11/02 02:39:10;;;;;;;;;38.00;34.00;;;;;10.88;100.00;100159.72;6297277;20;3580613;-68
2022/11/02 02:41:57;;;;;;;;;47.50;38.50;;;;;10.93;100.00;100171.09;6260877;20;2850284;-68
2022/11/02 02:44:35;;;;;;;;;51.67;38.67;;;;;11.01;100.00;100165.28;6266464;20;2487866;-68
2022/11/02 02:47:20;;;;;;;;;46.67;38.67;;;;;11.04;100.00;100167.81;6306081;20;3599231;-68
2022/11/02 02:49:55;;;;;;;;;44.33;37.00;;;;;11.01;100.00;100157.25;6271085;20;3604529;-68
2022/11/02 02:52:26;;;;;;;;;47.00;35.67;;;;;10.96;100.00;100159.31;6264755;20;2866195;-68
2022/11/02 02:54:59;;;;;;;;;50.33;37.00;;;;;10.86;100.00;100161.63;6304715;20;3608628;-69
2022/11/02 02:57:31;;;;;;;;;44.33;36.00;;;;;10.76;100.00;100147.81;6267651;20;2843077;-69
2022/11/02 03:00:00;;;;;;;;;41.33;35.00;;;;;11.06;100.00;100157.84;6305007;20;3596129;-68
2022/11/02 03:02:38;;;;;;;;;41.00;34.33;;;;;10.97;100.00;100166.41;6268647;20;3603395;-68
2022/11/02 03:05:33;;;;;;;;;47.33;41.00;;;;;10.88;100.00;100167.78;6302358;20;3601662;-68
2022/11/02 03:08:14;;;;;;;;;50.33;38.33;;;;;11.08;100.00;100172.03;6303242;20;3616817;-68
2022/11/02 03:10:56;;;;;;;;;55.33;40.67;;;;;10.69;100.00;100162.56;6269541;20;3613839;-68
2022/11/02 03:13:57;;;;;;;;;46.00;35.33;;;;;10.94;100.00;100161.22;6301227;20;3591051;-69
2022/11/02 03:17:06;;;;;;;;;49.50;39.00;;;;;10.80;100.00;100174.53;6268323;20;2857678;-68
2022/11/02 03:19:49;;;;;;;;;49.00;39.00;;;;;10.65;100.00;100177.09;6271031;20;3602394;-68
2022/11/02 03:22:55;;;;;;;;;49.67;37.00;;;;;10.63;100.00;100178.13;6268830;20;2851389;-68
2022/11/02 03:26:07;;;;;;;;;49.00;38.67;;;;;10.60;100.00;100172.94;6306973;20;3613263;-68
2022/11/02 03:29:02;;;;;;;;;51.00;38.00;;;;;10.64;100.00;100170.00;6268734;20;3624245;-68
2022/11/02 03:31:49;;;;;;;;;51.33;40.00;;;;;10.51;100.00;100159.06;6305973;20;3608616;-68
2022/11/02 03:34:43;;;;;;;;;39.50;35.00;;;;;10.52;100.00;100170.66;6267151;20;2852455;-68
2022/11/02 03:37:38;;;;;;;;;38.50;34.00;;;;;10.63;100.00;100165.56;6269755;20;2841028;-69
2022/11/02 03:40:49;;;;;;;;;49.00;37.67;;;;;10.22;100.00;100174.00;6271453;20;3609235;-68
2022/11/02 03:43:20;;;;;;;;;45.67;38.00;;;;;10.21;100.00;100172.22;6272722;20;3573192;-68
2022/11/02 03:45:57;;;;;;;;;50.00;37.67;;;;;10.27;100.00;100168.38;6267495;20;3618438;-68
2022/11/02 03:48:41;;;;;;;;;49.33;38.67;;;;;10.43;100.00;100168.47;6267992;20;2875465;-68
2022/11/02 03:51:14;;;;;;;;;41.33;35.67;;;;;10.35;100.00;100184.09;6302831;20;3580463;-68
2022/11/02 03:54:11;;;;;;;;;52.33;39.00;;;;;10.29;100.00;100190.66;6265378;20;3624259;-68
2022/11/02 03:56:50;;;;;;;;;52.33;37.00;;;;;10.27;100.00;100203.28;6304402;20;3615913;-68
2022/11/02 03:59:20;;;;;;;;;46.33;36.00;;;;;10.37;100.00;100207.22;6268112;20;2854716;-68
2022/11/02 04:01:51;;;;;;;;;55.33;42.67;;;;;10.43;100.00;100209.59;6301921;20;3612750;-67
2022/11/02 04:04:21;;;;;;;;;52.67;42.00;;;;;10.51;100.00;100214.56;6264557;20;2856764;-68
2022/11/02 04:06:52;;;;;;;;;52.67;40.33;;;;;10.40;100.00;100208.88;6302726;20;3622287;-68
2022/11/02 04:09:21;;;;;;;;;44.00;38.00;;;;;10.39;100.00;100207.16;6298541;20;2770129;-68
2022/11/02 04:14:37;;;;;;;;;46.33;38.00;;;;;10.36;100.00;100215.38;6303652;20;3592089;-68
2022/11/02 04:20:16;;;;;;;;;49.33;38.33;;;;;10.36;100.00;100218.06;6271544;20;3591998;-68
2022/11/02 04:25:35;;;;;;;;;51.67;40.33;;;;;10.37;100.00;100212.59;6298771;20;3613334;-68
2022/11/02 04:28:09;;;;;;;;;47.33;35.00;;;;;10.42;100.00;100223.97;6295600;20;2854636;-68
2022/11/02 04:30:37;;;;;;;;;51.00;37.33;;;;;10.37;100.00;100219.78;6304848;20;3610665;-67
2022/11/02 04:36:00;;;;;;;;;44.00;37.00;;;;;10.23;100.00;100205.22;6274429;20;3594153;-69
2022/11/02 04:38:39;;;;;;;;;45.50;37.50;;;;;10.17;100.00;100210.94;6268153;20;2853386;-68
2022/11/02 04:44:21;;;;;;;;;50.50;35.50;;;;;10.28;100.00;100210.41;6300746;20;3639925;-68
2022/11/02 04:46:56;;;;;;;;;46.00;38.33;;;;;10.45;100.00;100217.56;6305485;20;3595115;-68
2022/11/02 04:49:24;;;;;;;;;44.00;35.00;;;;;10.25;100.00;100216.75;6272142;20;3587034;-68
2022/11/02 04:51:53;;;;;;;;;49.00;37.00;;;;;10.31;100.00;100216.47;6272287;20;2858675;-68
2022/11/02 04:54:23;;;;;;;;;49.00;38.00;;;;;10.39;100.00;100220.56;6269508;20;3606533;-68
2022/11/02 04:56:51;;;;;;;;;52.67;38.00;;;;;10.41;100.00;100232.09;6306310;20;3597171;-68
2022/11/02 04:59:20;;;;;;;;;44.00;34.33;;;;;10.33;100.00;100219.09;6264465;20;3601292;-68
2022/11/02 05:01:49;;;;;;;;;46.50;37.50;;;;;10.36;100.00;100234.16;6265648;20;2844000;-68
2022/11/02 05:04:18;;;;;;;;;51.00;35.00;;;;;10.32;100.00;100233.44;6261666;20;3623201;-68
2022/11/02 05:06:47;;;;;;;;;43.00;35.50;;;;;10.37;100.00;100241.25;6267230;20;2846167;-67
2022/11/02 05:09:16;;;;;;;;;45.33;37.00;;;;;10.33;100.00;100249.47;6269129;20;2847221;-68
2022/11/02 05:11:47;;;;;;;;;49.00;38.00;;;;;10.25;100.00;100242.72;6306402;20;3596209;-68
2022/11/02 05:14:16;;;;;;;;;47.33;35.33;;;;;10.37;100.00;100260.03;6266227;20;2856564;-68
2022/11/02 05:16:45;;;;;;;;;43.67;35.00;;;;;10.24;100.00;100263.34;6300522;20;3587844;-68
2022/11/02 05:19:13;;;;;;;;;39.00;34.50;;;;;10.23;100.00;100256.22;6267507;20;2837750;-68
2022/11/02 05:21:45;;;;;;;;;39.33;34.33;;;;;10.27;100.00;100252.47;6271596;20;3582591;-68
2022/11/02 05:24:15;;;;;;;;;49.67;39.33;;;;;10.33;100.00;100262.88;6268339;20;2859738;-68
2022/11/02 05:26:44;;;;;;;;;43.00;34.50;;;;;10.42;100.00;100269.59;6298011;20;2840889;-68
2022/11/02 05:29:19;;;;;;;;;47.33;33.67;;;;;10.36;100.00;100261.00;6267090;20;3637855;-69
2022/11/02 05:31:48;;;;;;;;;49.00;38.00;;;;;10.39;100.00;100267.06;6268306;20;2862765;-68
2022/11/02 05:34:15;;;;;;;;;44.00;36.00;;;;;10.43;100.00;100265.13;6263540;20;2468109;-69
2022/11/02 05:36:47;;;;;;;;;40.50;36.00;;;;;10.38;100.00;100275.22;6267794;20;2830583;-68
2022/11/02 05:39:17;;;;;;;;;44.67;35.00;;;;;10.36;100.00;100279.78;6265260;20;2859798;-68
2022/11/02 05:41:45;;;;;;;;;37.50;34.50;;;;;10.32;100.00;100277.28;6296750;20;2843057;-68
2022/11/02 05:44:14;;;;;;;;;42.33;37.00;;;;;10.38;100.00;100277.91;6263886;20;3583734;-68
2022/11/02 05:46:43;;;;;;;;;46.00;37.00;;;;;10.36;100.00;100277.97;6264283;20;2857579;-69
2022/11/02 05:49:14;;;;;;;;;49.00;39.00;;;;;10.23;100.00;100282.19;6264057;20;2747200;-69
2022/11/02 05:51:44;;;;;;;;;47.67;38.33;;;;;10.29;100.00;100288.16;6299713;20;3602288;-69
2022/11/02 05:54:13;;;;;;;;;50.00;37.50;;;;;10.42;100.00;100287.53;6294046;20;2856639;-68
2022/11/02 05:56:42;;;;;;;;;51.67;37.33;;;;;10.40;100.00;100284.03;6269968;20;3616944;-70
2022/11/02 05:59:16;;;;;;;;;49.33;38.67;;;;;10.31;100.00;100286.25;6296883;20;2861290;-69
2022/11/02 06:01:46;;;;;;;;;50.67;35.00;;;;;10.43;100.00;100283.91;6298871;20;3606597;-69
2022/11/02 06:04:15;;;;;;;;;51.00;39.00;;;;;10.44;100.00;100285.63;6292500;20;3488895;-68
2022/11/02 06:06:45;;;;;;;;;48.00;39.00;;;;;10.58;100.00;100288.47;6296123;20;3596166;-69
2022/11/02 06:09:14;;;;;;;;;48.50;38.00;;;;;10.42;100.00;100292.88;6295741;20;2867724;-69
2022/11/02 06:11:45;;;;;;;;;48.67;37.33;;;;;10.55;100.00;100300.22;6272070;20;3613987;-70
2022/11/02 06:14:15;;;;;;;;;43.00;34.00;;;;;10.40;100.00;100292.97;6263332;20;2864964;-69
2022/11/02 06:16:44;;;;;;;;;50.67;41.67;;;;;10.47;100.00;100307.81;6301770;20;3597123;-69
2022/11/02 06:19:14;;;;;;;;;51.00;38.67;;;;;10.63;100.00;100293.59;6271131;20;3627341;-68
2022/11/02 06:21:43;;;;;;;;;49.67;39.00;;;;;10.61;100.00;100300.84;6301610;20;3602310;-69
2022/11/02 06:24:17;;;;;;;;;46.33;38.00;;;;;10.70;100.00;100293.19;6298048;20;3609677;-69
2022/11/02 06:26:53;;;;;;;;;48.50;36.50;;;;;10.91;100.00;100283.13;6305074;20;3496150;-70
2022/11/02 06:29:23;;;;;;;;;50.00;39.00;;;;;10.93;100.00;100286.63;6307390;20;3614885;-69
2022/11/02 06:31:52;;;;;;;;;46.67;39.00;;;;;10.80;100.00;100282.00;6308263;20;3590895;-68
2022/11/02 06:34:22;;;;;;;;;49.67;37.67;;;;;10.98;100.00;100281.00;6275374;20;3613926;-69
2022/11/02 06:36:51;;;;;;;;;53.33;39.33;;;;;11.04;100.00;100282.50;6309422;20;3632575;-69
2022/11/02 06:39:20;;;;;;;;;53.33;37.33;;;;;11.20;100.00;100281.56;6278212;20;3626388;-69
2022/11/02 06:41:49;;;;;;;;;70.50;53.50;;;;;11.33;100.00;100288.97;6276162;20;3622272;-69
2022/11/02 06:44:19;;;;;;;;;51.33;43.33;;;;;11.35;100.00;100276.31;6301044;20;3601252;-68
2022/11/02 06:46:49;;;;;;;;;75.50;56.75;;;;;11.17;100.00;100280.88;6306678;20;3644130;-69
2022/11/02 06:49:19;;;;;;;;;77.50;60.00;;;;;11.23;100.00;100282.34;6303592;20;4410810;-69
2022/11/02 06:51:51;;;;;;;;;58.00;46.67;;;;;11.39;100.00;100291.31;6308046;20;3611823;-68
2022/11/02 06:54:21;;;;;;;;;57.67;42.67;;;;;11.31;100.00;100282.78;6267548;20;3631494;-68
2022/11/02 06:56:50;;;;;;;;;54.33;43.33;;;;;11.49;100.00;100287.16;6304214;20;3609639;-69
2022/11/02 06:59:20;;;;;;;;;57.33;45.33;;;;;11.38;100.00;100298.50;6305468;20;3629442;-69
2022/11/02 07:01:52;;;;;;;;;54.67;44.67;;;;;11.48;100.00;100289.91;6302999;20;3604426;-69
2022/11/02 07:04:22;;;;;;;;;51.67;41.33;;;;;11.60;100.00;100286.56;6301371;20;3611709;-68
2022/11/02 07:06:51;;;;;;;;;47.33;38.00;;;;;11.69;100.00;100290.53;6304655;20;3600392;-69
2022/11/02 07:09:21;;;;;;;;;48.67;36.67;;;;;11.50;100.00;100294.25;6270733;20;3605471;-69
2022/11/02 07:11:49;;;;;;;;;51.67;39.67;;;;;11.52;100.00;100286.97;6306429;20;3614980;-70
2022/11/02 07:14:19;;;;;;;;;51.33;40.00;;;;;11.67;100.00;100279.03;6268343;20;3605599;-69
2022/11/02 07:16:48;;;;;;;;;49.00;38.00;;;;;11.75;100.00;100277.63;6303151;20;3609802;-69
2022/11/02 07:19:16;;;;;;;;;48.33;37.00;;;;;11.71;100.00;100276.03;6273767;20;3617085;-69
2022/11/02 07:21:46;;;;;;;;;52.00;38.00;;;;;11.78;100.00;100274.75;6272053;20;3626384;-69
2022/11/02 07:24:16;;;;;;;;;47.67;39.00;;;;;11.85;100.00;100264.53;6302518;20;3606551;-70
2022/11/02 07:26:51;;;;;;;;;41.00;37.00;;;;;12.05;100.00;100261.53;6306845;20;3585408;-69
2022/11/02 07:29:20;;;;;;;;;39.33;32.33;;;;;12.06;100.00;100271.38;6270637;20;3614865;-68
2022/11/02 07:31:49;;;;;;;;;52.25;41.75;;;;;12.04;100.00;100272.41;6270906;20;3623188;-70
2022/11/02 07:34:41;;;;;;;;;52.00;42.00;;;;;12.06;100.00;100262.44;6302642;20;3623215;-70
2022/11/02 07:37:30;;;;;;;;;53.00;39.67;;;;;12.25;100.00;100284.63;6305132;20;3622292;-71
2022/11/02 07:40:20;;;;;;;;;48.67;38.00;;;;;12.48;100.00;100290.44;6269894;20;3601326;-69
2022/11/02 07:42:49;;;;;;;;;46.33;36.00;;;;;12.44;100.00;100287.09;6306067;20;3607683;-70
2022/11/02 07:45:22;;;;;;;;;53.33;39.67;;;;;12.29;100.00;100286.16;6270264;20;3608593;-71
2022/11/02 07:47:51;;;;;;;;;46.67;37.00;;;;;12.49;100.00;100289.50;6301008;20;2862796;-71
2022/11/02 07:50:24;;;;;;;;;43.00;34.00;;;;;12.56;100.00;100284.59;6301480;20;3609739;-69
2022/11/02 07:52:59;;;;;;;;;64.67;51.00;;;;;12.40;100.00;100284.66;6269571;20;3626387;-69
2022/11/02 07:55:30;;;;;;;;;45.33;34.00;;;;;12.54;100.00;100287.41;6270748;20;3601354;-69
2022/11/02 07:58:06;;;;;;;;;45.00;36.33;;;;;12.39;100.00;100291.88;6275445;20;3596192;-68
2022/11/02 08:00:40;;;;;;;;;43.67;35.33;;;;;12.54;100.00;100294.63;6272489;20;3597292;-68
2022/11/02 08:03:11;;;;;;;;;47.33;36.33;;;;;12.79;100.00;100289.47;6265963;20;3605624;-69
2022/11/02 08:05:42;;;;;;;;;48.67;36.67;;;;;12.77;100.00;100298.59;6306472;20;3612831;-70
2022/11/02 08:08:19;;;;;;;;;42.33;33.67;;;;;12.64;100.00;100295.81;6271332;20;2861873;-68
2022/11/02 08:10:51;;;;;;;;;46.00;35.67;;;;;12.41;100.00;100297.19;6304885;20;3603410;-68
2022/11/02 08:13:24;;;;;;;;;43.67;33.67;;;;;12.60;100.00;100292.41;6136527;20;3596112;-67
2022/11/02 08:15:54;;;;;;;;;38.00;31.33;;;;;12.37;100.00;100285.69;6278753;20;3587811;-69
2022/11/02 08:18:27;;;;;;;;;45.33;34.00;;;;;12.40;100.00;100295.44;6274736;20;3593186;-68
2022/11/02 08:20:58;;;;;;;;;46.67;34.00;;;;;12.40;100.00;100301.69;6276552;20;3625254;-69
2022/11/02 08:23:27;;;;;;;;;46.00;34.00;;;;;12.38;100.00;100311.69;6276285;20;3591953;-68
2022/11/02 08:25:59;;;;;;;;;43.67;34.00;;;;;12.50;100.00;100312.78;6271432;20;2862807;-69
2022/11/02 08:28:34;;;;;;;;;39.00;33.33;;;;;12.44;100.00;100310.47;6307342;20;3589941;-69
2022/11/02 08:31:04;;;;;;;;;36.00;30.67;;;;;12.52;100.00;100311.72;6272747;20;2853976;-68
2022/11/02 08:33:33;;;;;;;;;42.00;35.67;;;;;12.48;100.00;100315.59;6308174;20;3594033;-68
2022/11/02 08:36:03;;;;;;;;;46.00;36.00;;;;;12.70;100.00;100316.97;6276444;20;3610693;-68
2022/11/02 08:38:32;;;;;;;;;42.00;34.00;;;;;12.64;100.00;100320.06;6275025;20;3597241;-68
2022/11/02 08:41:02;;;;;;;;;45.67;35.67;;;;;12.75;100.00;100309.50;6271242;20;3617970;-68
2022/11/02 08:43:31;;;;;;;;;38.00;33.00;;;;;12.78;100.00;100316.53;6303530;20;3606510;-69
2022/11/02 08:46:02;;;;;;;;;44.00;33.33;;;;;12.82;100.00;100313.56;6271296;20;3602340;-69
2022/11/02 08:48:46;;;;;;;;;35.50;31.00;;;;;12.98;100.00;100323.38;6307996;20;3498185;-68
2022/11/02 08:51:15;;;;;;;;;49.33;37.33;;;;;13.23;100.00;100323.59;6301185;20;3623167;-67
2022/11/02 08:53:44;;;;;;;;;45.00;36.00;;;;;13.15;100.00;100310.59;6306517;20;3591909;-67
2022/11/02 08:56:20;;;;;;;;;47.33;37.33;;;;;13.03;100.00;100326.66;6274977;20;3595212;-69
2022/11/02 08:58:48;;;;;;;;;45.33;36.00;;;;;13.03;100.00;100321.25;6308173;20;3589902;-69
2022/11/02 09:01:18;;;;;;;;;46.67;37.67;;;;;13.10;100.00;100311.84;6268473;20;3603502;-69
2022/11/02 09:03:46;;;;;;;;;46.50;38.00;;;;;13.22;100.00;100315.59;6305877;20;2734747;-70
2022/11/02 09:06:15;;;;;;;;;50.33;41.33;;;;;13.32;100.00;100311.38;6305481;20;3621179;-70
2022/11/02 09:08:45;;;;;;;;;50.00;39.33;;;;;13.32;100.00;100317.69;6270440;20;3603388;-70
2022/11/02 09:11:14;;;;;;;;;50.00;42.33;;;;;13.32;100.00;100317.69;6307665;20;3602329;-67
2022/11/02 09:13:42;;;;;;;;;48.33;39.00;;;;;13.23;100.00;100318.22;6272810;20;3621104;-68
2022/11/02 09:16:12;;;;;;;;;54.00;40.33;;;;;13.48;100.00;100316.69;6274020;20;3631615;-68
2022/11/02 09:18:42;;;;;;;;;54.00;40.00;;;;;13.37;100.00;100320.06;6306476;20;4395020;-69
2022/11/02 09:21:10;;;;;;;;;50.33;40.00;;;;;13.39;100.00;100316.31;6304369;20;3611995;-69
2022/11/02 09:23:40;;;;;;;;;51.25;39.75;;;;;13.49;100.00;100315.75;6270580;20;3623305;-68
2022/11/02 09:26:09;;;;;;;;;51.00;41.00;;;;;13.21;100.00;100306.66;6306130;20;3610820;-70
2022/11/02 09:28:37;;;;;;;;;55.00;42.00;;;;;13.58;100.00;100315.13;6276759;20;3623202;-68
2022/11/02 09:31:07;;;;;;;;;52.67;41.00;;;;;13.61;100.00;100309.53;6271585;20;3630498;-69
2022/11/02 09:33:40;;;;;;;;;48.67;39.67;;;;;13.54;100.00;100292.03;6270024;20;3611857;-69
2022/11/02 09:36:11;;;;;;;;;54.33;42.67;;;;;13.84;100.00;100308.91;6303447;20;3622283;-69
2022/11/02 09:38:41;;;;;;;;;45.00;36.00;;;;;13.76;100.00;100305.00;6276888;20;3599278;-68
2022/11/02 09:41:55;;;;;;;;;49.00;40.00;;;;;14.25;100.00;100326.06;6272364;20;2869238;-68
2022/11/02 09:45:05;;;;;;;;;46.00;37.33;;;;;14.67;100.00;100302.56;6307166;20;3597105;-69
2022/11/02 09:47:49;;;;;;;;;46.67;35.67;;;;;14.76;99.03;100306.47;6268087;20;3605462;-71
2022/11/02 09:51:00;;;;;;;;;45.33;36.00;;;;;14.67;99.15;100298.00;6274156;20;3604636;-70
2022/11/02 09:54:00;;;;;;;;;49.00;38.00;;;;;14.33;99.23;100295.84;6271243;20;3608650;-70
2022/11/02 09:56:31;;;;;;;;;56.00;44.00;;;;;14.76;99.39;100287.53;6304572;20;3628598;-71
2022/11/02 09:59:24;;;;;;;;;73.50;61.75;;;;;14.54;100.00;100286.31;6305823;20;4396196;-70
2022/11/02 10:02:50;;;;;;;;;52.00;39.75;;;;;14.64;100.00;100298.22;6303904;20;3626356;-69
2022/11/02 10:05:51;;;;;;;;;36.67;32.00;;;;;14.43;100.00;100288.88;6306599;20;3584206;-70
2022/11/02 10:08:55;;;;;;;;;47.33;38.33;;;;;14.58;100.00;100284.25;6267593;20;2864951;-70
2022/11/02 10:12:38;;;;;;;;;46.33;36.67;;;;;14.78;100.00;100282.91;6298985;20;3606563;-70
2022/11/02 10:15:21;;;;;;;;;36.00;30.00;;;;;15.05;98.68;100286.34;6268739;20;3612840;-73
2022/11/02 10:17:57;;;;;;;;;28.67;28.00;;;;;15.21;96.04;100286.13;6305533;20;3594037;-73
2022/11/02 10:20:43;;;;;;;;;37.67;32.00;;;;;15.31;95.33;100273.69;6274333;20;3613810;-72
2022/11/02 10:23:51;;;;;;;;;40.33;33.00;;;;;15.56;95.83;100285.44;6273674;20;3588803;-71
2022/11/02 10:26:38;;;;;;;;;38.00;31.00;;;;;15.24;98.01;100285.91;6272204;20;3611761;-71
2022/11/02 10:29:46;;;;;;;;;39.33;30.67;;;;;15.32;96.27;100275.44;6272802;20;3607555;-70
2022/11/02 10:32:16;;;;;;;;;34.00;28.00;;;;;15.42;95.95;100277.47;6269162;20;3614851;-70
2022/11/02 10:34:46;;;;;;;;;22.00;18.00;;;;;15.45;95.97;100283.50;6270854;20;2816933;-70
2022/11/02 10:38:03;;;;;;;;;40.33;31.67;;;;;15.61;96.14;100277.84;6265925;20;3609671;-70
2022/11/02 10:41:22;;;;;;;;;34.67;33.33;;;;;15.59;94.37;100274.41;6274970;20;3587757;-69
2022/11/02 10:44:37;;;;;;;;;40.67;32.67;;;;;16.10;93.45;100274.25;6273994;20;3611774;-71
2022/11/02 10:47:19;;;;;;;;;44.33;34.00;;;;;15.82;93.91;100275.44;6267865;20;3590972;-70
2022/11/02 10:50:25;;;;;;;;;39.67;31.00;;;;;15.87;93.59;100270.53;6298779;20;2852477;-67
2022/11/02 10:52:55;;;;;;;;;44.33;32.33;;;;;15.83;95.02;100260.94;6303029;20;3600286;-70
2022/11/02 10:56:15;;;;;;;;;34.33;31.00;;;;;15.61;94.93;100269.72;6273754;20;3614853;-72
2022/11/02 10:59:08;;;;;;;;;37.33;32.33;;;;;15.99;92.83;100272.34;6271797;20;3598305;-71
2022/11/02 11:01:37;;;;;;;;;36.33;30.00;;;;;15.92;93.69;100268.34;6267664;20;2874251;-71
2022/11/02 11:04:25;;;;;;;;;38.33;33.00;;;;;15.81;94.54;100265.59;6304988;20;3594124;-71
2022/11/02 11:06:57;;;;;;;;;35.33;31.33;;;;;16.32;91.64;100269.91;6273173;20;3590964;-69
2022/11/02 11:09:50;;;;;;;;;41.33;32.00;;;;;16.33;92.03;100274.38;6307738;20;3603552;-70
2022/11/02 11:12:39;;;;;;;;;53.67;42.00;;;;;16.52;91.57;100274.66;6278294;20;3616969;-70
2022/11/02 11:15:30;;;;;;;;;38.50;34.00;;;;;15.86;93.75;100268.81;6269855;20;2852428;-71
2022/11/02 11:18:21;;;;;;;;;38.33;34.00;;;;;16.22;93.52;100265.19;6275668;20;3606608;-69
2022/11/02 11:21:10;;;;;;;;;25.67;24.67;;;;;16.26;92.48;100265.81;6276391;20;3582863;-73
2022/11/02 11:23:39;;;;;;;;;31.33;28.67;;;;;16.33;92.60;100264.38;6275334;20;3600444;-72
2022/11/02 11:26:27;;;;;;;;;42.33;33.67;;;;;16.49;91.27;100261.34;6272875;20;2845136;-72
2022/11/02 11:28:57;;;;;;;;;33.00;30.25;;;;;16.16;92.05;100264.78;6308750;20;3598277;-72
2022/11/02 11:31:26;;;;;;;;;35.75;29.50;;;;;16.41;91.63;100266.50;6305574;20;3615972;-72
2022/11/02 11:33:59;;;;;;;;;32.67;30.67;;;;;16.38;92.74;100277.59;6303542;20;3612832;-68
2022/11/02 11:36:33;;;;;;;;;41.33;32.67;;;;;16.25;93.30;100272.22;6306626;20;3611730;-69
2022/11/02 11:39:20;;;;;;;;;29.00;28.00;;;;;16.16;91.60;100260.22;6275657;20;3599297;-73
2022/11/02 11:41:48;;;;;;;;;39.67;33.33;;;;;16.51;91.48;100267.53;6277812;20;3579407;-71
2022/11/02 11:44:17;;;;;;;;;38.67;32.67;;;;;16.51;91.49;100266.63;6276068;20;3572260;-71
2022/11/02 11:46:57;;;;;;;;;36.50;30.00;;;;;16.60;91.26;100271.38;6274792;20;3634650;-70